createdAt,value
2019-01-26T00:00:42.164Z,94977.10
2019-01-26T00:03:12.312Z,94970.15
2019-01-26T00:05:42.251Z,94974.79
2019-01-26T00:08:12.397Z,94973.42
2019-01-26T00:10:44.263Z,94972.17
2019-01-26T00:13:14.234Z,94966.92
2019-01-26T00:15:44.328Z,94973.19
2019-01-26T00:18:14.315Z,94966.12
2019-01-26T00:20:44.383Z,94969.55
2019-01-26T00:23:14.285Z,94965.32
2019-01-26T00:25:44.367Z,94961.17
2019-01-26T00:28:14.212Z,94954.34
2019-01-26T00:30:44.328Z,94953.08
2019-01-26T00:33:17.320Z,94960.14
2019-01-26T00:35:47.423Z,94959.34
2019-01-26T00:38:18.596Z,94954.55
2019-01-26T00:40:48.870Z,94960.83
2019-01-26T00:43:21.685Z,94950.98
2019-01-26T00:45:51.641Z,94952.36
2019-01-26T00:48:21.611Z,94947.11
2019-01-26T00:50:51.606Z,94947.30
2019-01-26T00:53:21.655Z,94943.88
2019-01-26T00:55:51.693Z,94943.80
2019-01-26T00:58:23.879Z,94940.45
2019-01-26T01:00:54.014Z,94932.69
2019-01-26T01:03:24.032Z,94927.66
2019-01-26T01:05:53.937Z,94915.80
2019-01-26T01:08:25.839Z,94915.81
2019-01-26T01:10:55.872Z,94902.80
2019-01-26T01:13:26.722Z,94903.70
2019-01-26T01:15:56.701Z,94893.77
2019-01-26T01:18:26.777Z,94891.47
2019-01-26T01:20:56.763Z,94889.52
2019-01-26T01:23:26.748Z,94892.37
2019-01-26T01:25:57.780Z,94886.89
2019-01-26T01:28:27.855Z,94886.03
2019-01-26T01:30:57.869Z,94875.16
2019-01-26T01:33:27.833Z,94873.08
2019-01-26T01:35:57.700Z,94873.17
2019-01-26T01:38:27.698Z,94884.37
2019-01-26T01:40:57.710Z,94887.63
2019-01-26T01:43:27.598Z,94892.88
2019-01-26T01:45:57.538Z,94874.42
2019-01-26T01:48:27.543Z,94871.45
2019-01-26T01:50:57.601Z,94862.52
2019-01-26T01:53:27.512Z,94858.00
2019-01-26T01:55:57.832Z,94858.34
2019-01-26T01:58:27.741Z,94857.95
2019-01-26T02:00:57.791Z,94859.91
2019-01-26T02:03:27.770Z,94860.34
2019-01-26T02:05:57.706Z,94849.90
2019-01-26T02:08:27.730Z,94859.22
2019-01-26T02:10:58.029Z,94852.03
2019-01-26T02:13:27.994Z,94847.63
2019-01-26T02:15:57.935Z,94837.80
2019-01-26T02:18:27.993Z,94842.45
2019-01-26T02:20:58.062Z,94839.92
2019-01-26T02:23:30.921Z,94829.73
2019-01-26T02:26:01.150Z,94810.73
2019-01-26T02:28:31.130Z,94810.80
2019-01-26T02:31:02.179Z,94802.11
2019-01-26T02:33:32.201Z,94812.17
2019-01-26T02:36:02.125Z,94797.64
2019-01-26T02:38:32.086Z,94798.89
2019-01-26T02:41:02.000Z,94799.45
2019-01-26T02:43:31.956Z,94788.03
2019-01-26T02:46:01.851Z,94791.02
2019-01-26T02:48:31.786Z,94781.83
2019-01-26T02:51:01.604Z,94772.98
2019-01-26T02:53:31.630Z,94774.80
2019-01-26T02:56:01.527Z,94776.59
2019-01-26T02:58:31.467Z,94774.21
2019-01-26T03:01:02.508Z,94763.72
2019-01-26T03:03:32.446Z,94760.15
2019-01-26T03:06:02.349Z,94765.06
2019-01-26T03:08:32.335Z,94772.78
2019-01-26T03:11:02.398Z,94773.31
2019-01-26T03:13:32.224Z,94772.31
2019-01-26T03:16:02.260Z,94763.84
2019-01-26T03:18:32.158Z,94777.80
2019-01-26T03:21:03.181Z,94768.33
2019-01-26T03:23:33.177Z,94755.60
2019-01-26T03:26:04.482Z,94761.91
2019-01-26T03:28:36.757Z,94778.80
2019-01-26T03:31:06.780Z,94743.51
2019-01-26T03:33:36.675Z,94753.17
2019-01-26T03:36:06.778Z,94745.89
2019-01-26T03:38:37.459Z,94748.73
2019-01-26T03:41:07.560Z,94755.65
2019-01-26T03:43:37.723Z,94746.08
2019-01-26T03:46:07.710Z,94741.13
2019-01-26T03:48:38.173Z,94740.84
2019-01-26T03:51:08.189Z,94742.20
2019-01-26T03:53:40.987Z,94738.22
2019-01-26T03:56:11.126Z,94734.30
2019-01-26T03:59:00.576Z,94728.22
2019-01-26T04:01:31.254Z,94741.05
2019-01-26T04:04:01.278Z,94742.78
2019-01-26T04:06:31.255Z,94743.45
2019-01-26T04:09:01.427Z,94734.72
2019-01-26T04:11:32.519Z,94731.08
2019-01-26T04:14:02.487Z,94721.41
2019-01-26T04:16:32.450Z,94728.00
2019-01-26T04:19:02.428Z,94725.38
2019-01-26T04:21:32.709Z,94730.89
2019-01-26T04:24:03.059Z,94719.23
2019-01-26T04:26:52.383Z,94717.51
2019-01-26T04:29:22.987Z,94714.20
2019-01-26T04:31:55.502Z,94707.73
2019-01-26T04:34:25.401Z,94711.19
2019-01-26T04:36:55.433Z,94703.02
2019-01-26T04:39:25.445Z,94707.08
2019-01-26T04:41:59.310Z,94704.05
2019-01-26T04:44:29.171Z,94697.51
2019-01-26T04:46:59.119Z,94697.97
2019-01-26T04:49:29.163Z,94699.08
2019-01-26T04:51:59.120Z,94685.89
2019-01-26T04:54:28.986Z,94687.20
2019-01-26T04:56:58.892Z,94714.45
2019-01-26T04:59:28.915Z,94700.42
2019-01-26T05:01:58.814Z,94695.61
2019-01-26T05:04:28.834Z,94696.28
2019-01-26T05:06:58.732Z,94687.33
2019-01-26T05:09:28.755Z,94691.36
2019-01-26T05:11:58.628Z,94694.67
2019-01-26T05:14:28.620Z,94680.41
2019-01-26T05:16:58.627Z,94686.46
2019-01-26T05:19:28.545Z,94680.95
2019-01-26T05:21:58.484Z,94695.71
2019-01-26T05:24:28.466Z,94679.34
2019-01-26T05:26:58.460Z,94666.00
2019-01-26T05:29:28.374Z,94666.42
2019-01-26T05:31:58.332Z,94668.94
2019-01-26T05:34:28.156Z,94663.48
2019-01-26T05:36:58.194Z,94665.45
2019-01-26T05:39:28.161Z,94655.44
2019-01-26T05:41:58.040Z,94647.70
2019-01-26T05:44:27.891Z,94651.90
2019-01-26T05:46:57.799Z,94653.81
2019-01-26T05:49:27.654Z,94653.95
2019-01-26T05:51:57.742Z,94657.96
2019-01-26T05:54:27.759Z,94650.69
2019-01-26T05:56:57.629Z,94654.66
2019-01-26T05:59:27.562Z,94650.09
2019-01-26T06:01:57.537Z,94658.44
2019-01-26T06:04:27.511Z,94661.56
2019-01-26T06:06:57.435Z,94670.34
2019-01-26T06:09:27.285Z,94670.95
2019-01-26T06:11:57.224Z,94652.03
2019-01-26T06:14:27.130Z,94665.58
2019-01-26T06:16:57.128Z,94686.86
2019-01-26T06:19:27.117Z,94664.45
2019-01-26T06:21:56.970Z,94654.92
2019-01-26T06:24:26.960Z,94660.61
2019-01-26T06:26:56.890Z,94664.87
2019-01-26T06:29:26.827Z,94668.26
2019-01-26T06:31:56.706Z,94660.33
2019-01-26T06:34:26.556Z,94662.60
2019-01-26T06:36:56.440Z,94665.56
2019-01-26T06:39:26.474Z,94657.09
2019-01-26T06:41:56.354Z,94656.37
2019-01-26T06:44:26.371Z,94665.13
2019-01-26T06:46:56.283Z,94652.91
2019-01-26T06:49:26.207Z,94649.92
2019-01-26T06:51:56.177Z,94648.36
2019-01-26T06:54:26.241Z,94655.06
2019-01-26T06:56:56.168Z,94651.25
2019-01-26T06:59:26.207Z,94665.34
2019-01-26T07:01:56.131Z,94680.34
2019-01-26T07:04:41.137Z,94679.11
2019-01-26T07:07:16.843Z,94684.81
2019-01-26T07:09:46.893Z,94672.54
2019-01-26T07:12:16.906Z,94679.29
2019-01-26T07:14:46.794Z,94677.59
2019-01-26T07:17:16.806Z,94673.07
2019-01-26T07:19:46.798Z,94681.73
2019-01-26T07:22:16.751Z,94697.38
2019-01-26T07:24:46.654Z,94666.81
2019-01-26T07:27:16.656Z,94658.03
2019-01-26T07:29:46.604Z,94662.44
2019-01-26T07:32:16.607Z,94658.82
2019-01-26T07:34:46.495Z,94676.80
2019-01-26T07:37:16.401Z,94665.80
2019-01-26T07:39:46.277Z,94665.63
2019-01-26T07:42:16.215Z,94670.06
2019-01-26T07:44:46.162Z,94676.72
2019-01-26T07:47:16.211Z,94679.38
2019-01-26T07:49:46.191Z,94674.81
2019-01-26T07:52:16.179Z,94676.89
2019-01-26T07:54:46.158Z,94675.36
2019-01-26T07:57:16.068Z,94672.66
2019-01-26T07:59:45.907Z,94681.97
2019-01-26T08:02:15.833Z,94684.64
2019-01-26T08:04:45.682Z,94665.50
2019-01-26T08:07:15.705Z,94668.72
2019-01-26T08:09:45.689Z,94672.69
2019-01-26T08:12:15.714Z,94673.81
2019-01-26T08:14:45.744Z,94672.55
2019-01-26T08:17:15.781Z,94680.28
2019-01-26T08:19:45.816Z,94674.92
2019-01-26T08:22:15.761Z,94673.67
2019-01-26T08:24:45.776Z,94665.36
2019-01-26T08:27:15.756Z,94690.58
2019-01-26T08:29:45.840Z,94683.84
2019-01-26T08:32:15.649Z,94672.61
2019-01-26T08:34:45.513Z,94672.46
2019-01-26T08:37:15.471Z,94674.53
2019-01-26T08:39:45.575Z,94673.59
2019-01-26T08:42:15.587Z,94673.61
2019-01-26T08:44:45.442Z,94687.17
2019-01-26T08:47:15.345Z,94672.54
2019-01-26T08:49:45.399Z,94684.55
2019-01-26T08:52:15.320Z,94681.68
2019-01-26T08:54:46.347Z,94685.17
2019-01-26T08:57:16.422Z,94703.63
2019-01-26T08:59:46.297Z,94699.98
2019-01-26T09:02:42.287Z,94700.12
2019-01-26T09:05:13.432Z,94692.21
2019-01-26T09:07:43.319Z,94690.98
2019-01-26T09:10:13.334Z,94704.70
2019-01-26T09:12:43.345Z,94694.32
2019-01-26T09:15:13.546Z,94694.66
2019-01-26T09:17:43.597Z,94701.92
2019-01-26T09:20:13.997Z,94696.09
2019-01-26T09:22:45.129Z,94695.92
2019-01-26T09:25:15.144Z,94695.44
2019-01-26T09:27:45.452Z,94678.06
2019-01-26T09:30:15.883Z,94688.56
2019-01-26T09:32:45.910Z,94695.36
2019-01-26T09:35:15.925Z,94697.36
2019-01-26T09:37:45.947Z,94696.44
2019-01-26T09:40:16.176Z,94699.62
2019-01-26T09:42:46.282Z,94688.52
2019-01-26T09:45:16.430Z,94695.64
2019-01-26T09:47:46.600Z,94694.23
2019-01-26T09:50:17.237Z,94701.36
2019-01-26T09:52:47.210Z,94693.76
2019-01-26T09:55:17.281Z,94706.91
2019-01-26T09:57:47.454Z,94703.23
2019-01-26T10:00:18.652Z,94701.98
2019-01-26T10:02:48.679Z,94717.77
2019-01-26T10:05:18.860Z,94711.30
2019-01-26T10:07:49.320Z,94712.85
2019-01-26T10:10:19.668Z,94699.45
2019-01-26T10:12:50.793Z,94711.31
2019-01-26T10:15:20.826Z,94720.48
2019-01-26T10:17:50.762Z,94700.56
2019-01-26T10:20:23.084Z,94706.78
2019-01-26T10:22:53.092Z,94701.55
2019-01-26T10:25:24.358Z,94703.44
2019-01-26T10:27:54.394Z,94709.28
2019-01-26T10:30:33.310Z,94701.08
2019-01-26T10:33:03.392Z,94701.24
2019-01-26T10:35:46.328Z,94703.61
2019-01-26T10:38:16.376Z,94694.28
2019-01-26T10:41:05.408Z,94703.14
2019-01-26T10:43:38.561Z,94676.22
2019-01-26T10:46:08.521Z,94680.63
2019-01-26T10:48:38.505Z,94667.34
2019-01-26T10:51:08.314Z,94670.65
2019-01-26T10:53:38.334Z,94666.19
2019-01-26T10:56:08.395Z,94659.69
2019-01-26T10:58:38.359Z,94659.98
2019-01-26T11:01:08.396Z,94666.48
2019-01-26T11:03:38.388Z,94664.52
2019-01-26T11:06:08.409Z,94646.79
2019-01-26T11:08:38.401Z,94639.55
2019-01-26T11:11:08.365Z,94644.26
2019-01-26T11:13:38.355Z,94641.94
2019-01-26T11:16:08.401Z,94642.81
2019-01-26T11:18:38.298Z,94633.16
2019-01-26T11:21:08.355Z,94619.95
2019-01-26T11:23:38.330Z,94625.39
2019-01-26T11:26:08.344Z,94615.28
2019-01-26T11:28:38.334Z,94611.34
2019-01-26T11:31:09.341Z,94616.53
2019-01-26T11:33:39.187Z,94615.47
2019-01-26T11:36:09.224Z,94607.54
2019-01-26T11:38:39.170Z,94612.42
2019-01-26T11:41:09.200Z,94604.80
2019-01-26T11:43:39.260Z,94606.09
2019-01-26T11:46:19.124Z,94609.39
2019-01-26T11:48:51.277Z,94604.12
2019-01-26T11:51:43.218Z,94597.90
2019-01-26T11:54:13.205Z,94591.93
2019-01-26T11:56:55.635Z,94587.67
2019-01-26T11:59:25.650Z,94583.02
2019-01-26T12:02:17.388Z,94575.75
2019-01-26T12:05:24.579Z,94566.80
2019-01-26T12:07:54.602Z,94566.59
2019-01-26T12:10:24.588Z,94570.65
2019-01-26T12:12:54.536Z,94558.80
2019-01-26T12:15:24.436Z,94558.14
2019-01-26T12:17:54.432Z,94556.33
2019-01-26T12:20:24.361Z,94565.59
2019-01-26T12:22:54.266Z,94561.28
2019-01-26T12:25:24.175Z,94557.86
2019-01-26T12:27:54.186Z,94548.28
2019-01-26T12:30:24.252Z,94542.74
2019-01-26T12:32:54.253Z,94534.47
2019-01-26T12:35:24.229Z,94538.84
2019-01-26T12:37:54.411Z,94535.64
2019-01-26T12:40:24.430Z,94536.44
2019-01-26T12:42:54.466Z,94560.07
2019-01-26T12:45:24.506Z,94529.69
2019-01-26T12:47:54.421Z,94542.17
2019-01-26T12:50:24.458Z,94550.67
2019-01-26T12:52:54.452Z,94531.62
2019-01-26T12:55:24.498Z,94528.06
2019-01-26T12:57:54.428Z,94521.70
2019-01-26T13:00:24.565Z,94520.22
2019-01-26T13:02:54.826Z,94517.53
2019-01-26T13:05:25.136Z,94526.61
2019-01-26T13:07:55.214Z,94521.02
2019-01-26T13:10:31.842Z,94515.78
2019-01-26T13:13:01.831Z,94521.96
2019-01-26T13:15:32.299Z,94521.81
2019-01-26T13:18:02.616Z,94509.73
2019-01-26T13:20:32.802Z,94521.01
2019-01-26T13:23:02.821Z,94517.63
2019-01-26T13:25:32.816Z,94521.18
2019-01-26T13:28:02.833Z,94514.48
2019-01-26T13:30:32.781Z,94527.52
2019-01-26T13:33:02.834Z,94510.83
2019-01-26T13:35:32.830Z,94508.38
2019-01-26T13:38:02.839Z,94507.42
2019-01-26T13:40:33.097Z,94512.37
2019-01-26T13:43:03.110Z,94505.70
2019-01-26T13:45:32.943Z,94515.83
2019-01-26T13:48:03.011Z,94512.28
2019-01-26T13:50:33.013Z,94505.61
2019-01-26T13:53:05.885Z,94504.19
2019-01-26T13:55:35.850Z,94513.91
2019-01-26T13:58:06.254Z,94512.16
2019-01-26T14:00:36.419Z,94511.45
2019-01-26T14:03:06.893Z,94517.41
2019-01-26T14:05:36.822Z,94514.13
2019-01-26T14:08:06.986Z,94515.83
2019-01-26T14:10:36.890Z,94523.63
2019-01-26T14:13:07.248Z,94515.83
2019-01-26T14:15:37.274Z,94508.78
2019-01-26T14:18:07.267Z,94523.98
2019-01-26T14:20:37.206Z,94520.56
2019-01-26T14:23:07.109Z,94524.28
2019-01-26T14:25:37.102Z,94517.76
2019-01-26T14:28:07.183Z,94518.42
2019-01-26T14:30:40.255Z,94520.53
2019-01-26T14:33:10.164Z,94525.21
2019-01-26T14:35:40.180Z,94520.30
2019-01-26T14:38:10.199Z,94511.63
2019-01-26T14:40:40.083Z,94523.20
2019-01-26T14:43:10.090Z,94518.11
2019-01-26T14:45:40.085Z,94529.90
2019-01-26T14:48:10.079Z,94539.00
2019-01-26T14:50:40.044Z,94508.08
2019-01-26T14:53:10.464Z,94507.73
2019-01-26T14:55:40.441Z,94515.66
2019-01-26T14:58:10.442Z,94496.73
2019-01-26T15:00:40.434Z,94496.50
2019-01-26T15:03:10.462Z,94496.20
2019-01-26T15:05:40.499Z,94510.65
2019-01-26T15:08:10.528Z,94504.52
2019-01-26T15:10:40.547Z,94503.20
2019-01-26T15:13:10.636Z,94502.11
2019-01-26T15:15:40.649Z,94506.55
2019-01-26T15:18:11.643Z,94501.34
2019-01-26T15:20:41.884Z,94491.31
2019-01-26T15:23:12.406Z,94478.05
2019-01-26T15:25:42.606Z,94477.69
2019-01-26T15:28:12.625Z,94482.83
2019-01-26T15:30:43.629Z,94475.05
2019-01-26T15:33:15.134Z,94474.00
2019-01-26T15:35:45.242Z,94477.46
2019-01-26T15:38:15.230Z,94478.11
2019-01-26T15:40:45.119Z,94480.25
2019-01-26T15:43:15.147Z,94467.03
2019-01-26T15:45:47.340Z,94484.02
2019-01-26T15:48:17.344Z,94470.88
2019-01-26T15:50:47.410Z,94467.80
2019-01-26T15:53:17.454Z,94463.75
2019-01-26T15:55:47.526Z,94463.06
2019-01-26T15:58:17.917Z,94455.08
2019-01-26T16:00:47.926Z,94453.73
2019-01-26T16:03:18.089Z,94462.63
2019-01-26T16:05:48.002Z,94455.00
2019-01-26T16:08:18.100Z,94445.98
2019-01-26T16:10:48.038Z,94446.96
2019-01-26T16:13:18.111Z,94457.33
2019-01-26T16:15:48.041Z,94456.58
2019-01-26T16:18:18.047Z,94459.33
2019-01-26T16:20:48.103Z,94452.84
2019-01-26T16:23:18.114Z,94462.94
2019-01-26T16:25:48.147Z,94452.06
2019-01-26T16:28:18.150Z,94450.79
2019-01-26T16:30:48.449Z,94444.58
2019-01-26T16:33:18.432Z,94438.27
2019-01-26T16:35:48.418Z,94446.36
2019-01-26T16:38:18.383Z,94439.95
2019-01-26T16:40:48.347Z,94433.44
2019-01-26T16:43:18.251Z,94433.44
2019-01-26T16:45:48.314Z,94437.66
2019-01-26T16:48:18.212Z,94447.26
2019-01-26T16:50:48.569Z,94441.94
2019-01-26T16:53:18.542Z,94442.97
2019-01-26T16:55:50.356Z,94435.19
2019-01-26T16:58:20.248Z,94425.69
2019-01-26T17:00:52.710Z,94425.58
2019-01-26T17:03:22.682Z,94424.38
2019-01-26T17:05:52.829Z,94414.81
2019-01-26T17:08:22.809Z,94412.50
2019-01-26T17:10:52.829Z,94415.11
2019-01-26T17:13:22.855Z,94429.05
2019-01-26T17:15:52.872Z,94412.41
2019-01-26T17:18:22.807Z,94412.27
2019-01-26T17:20:52.767Z,94402.21
2019-01-26T17:23:22.810Z,94407.67
2019-01-26T17:25:52.731Z,94406.15
2019-01-26T17:28:22.773Z,94399.47
2019-01-26T17:30:52.894Z,94394.20
2019-01-26T17:33:22.928Z,94395.59
2019-01-26T17:35:52.841Z,94390.66
2019-01-26T17:38:22.860Z,94390.04
2019-01-26T17:40:54.476Z,94384.30
2019-01-26T17:43:25.514Z,94380.30
2019-01-26T17:45:55.543Z,94387.19
2019-01-26T17:48:25.483Z,94383.30
2019-01-26T17:50:55.668Z,94378.31
2019-01-26T17:53:25.660Z,94373.72
2019-01-26T17:55:55.631Z,94369.91
2019-01-26T17:58:25.549Z,94378.75
2019-01-26T18:00:57.430Z,94368.46
2019-01-26T18:03:27.437Z,94370.83
2019-01-26T18:05:57.492Z,94366.48
2019-01-26T18:08:27.494Z,94362.91
2019-01-26T18:10:57.560Z,94367.06
2019-01-26T18:13:27.789Z,94357.70
2019-01-26T18:15:58.784Z,94352.62
2019-01-26T18:18:28.785Z,94363.98
2019-01-26T18:20:58.761Z,94348.41
2019-01-26T18:23:32.959Z,94346.48
2019-01-26T18:26:04.188Z,94338.92
2019-01-26T18:28:35.105Z,94345.75
2019-01-26T18:31:05.210Z,94352.75
2019-01-26T18:33:35.501Z,94346.27
2019-01-26T18:36:06.264Z,94343.82
2019-01-26T18:38:36.482Z,94351.39
2019-01-26T18:41:06.764Z,94350.38
2019-01-26T18:43:36.715Z,94342.46
2019-01-26T18:46:06.800Z,94337.20
2019-01-26T18:48:37.235Z,94333.01
2019-01-26T18:51:07.240Z,94337.13
2019-01-26T18:53:37.221Z,94326.39
2019-01-26T18:56:07.203Z,94327.84
2019-01-26T18:58:37.213Z,94329.07
2019-01-26T19:01:07.071Z,94322.55
2019-01-26T19:04:10.247Z,94320.14
2019-01-26T19:06:40.179Z,94319.22
2019-01-26T19:09:11.906Z,94322.28
2019-01-26T19:11:41.907Z,94321.89
2019-01-26T19:14:12.058Z,94315.32
2019-01-26T19:16:42.128Z,94310.86
2019-01-26T19:19:12.092Z,94307.61
2019-01-26T19:21:42.058Z,94295.63
2019-01-26T19:24:12.279Z,94295.06
2019-01-26T19:26:42.207Z,94292.44
2019-01-26T19:29:12.103Z,94300.22
2019-01-26T19:31:42.129Z,94297.73
2019-01-26T19:34:11.974Z,94288.44
2019-01-26T19:36:42.030Z,94280.94
2019-01-26T19:39:12.022Z,94280.97
2019-01-26T19:41:42.061Z,94276.69
2019-01-26T19:44:12.056Z,94280.97
2019-01-26T19:46:42.096Z,94275.64
2019-01-26T19:49:12.004Z,94270.26
2019-01-26T19:51:42.049Z,94266.02
2019-01-26T19:54:12.047Z,94266.80
2019-01-26T19:56:43.184Z,94265.09
2019-01-26T19:59:13.176Z,94258.07
2019-01-26T20:01:44.012Z,94269.55
2019-01-26T20:04:13.937Z,94273.25
2019-01-26T20:06:44.038Z,94255.81
2019-01-26T20:09:14.767Z,94255.88
2019-01-26T20:11:44.787Z,94256.05
2019-01-26T20:14:14.733Z,94251.57
2019-01-26T20:16:44.767Z,94265.64
2019-01-26T20:19:15.765Z,94246.50
2019-01-26T20:21:45.753Z,94217.56
2019-01-26T20:24:15.805Z,94237.22
2019-01-26T20:26:45.625Z,94240.37
2019-01-26T20:29:15.665Z,94242.12
2019-01-26T20:31:45.675Z,94239.41
2019-01-26T20:34:15.762Z,94230.23
2019-01-26T20:36:45.724Z,94229.13
2019-01-26T20:39:15.737Z,94229.17
2019-01-26T20:41:45.735Z,94232.53
2019-01-26T20:44:15.916Z,94227.50
2019-01-26T20:46:47.545Z,94224.55
2019-01-26T20:49:17.558Z,94226.05
2019-01-26T20:51:47.453Z,94218.07
2019-01-26T20:54:17.445Z,94213.38
2019-01-26T20:56:47.358Z,94221.88
2019-01-26T20:59:17.360Z,94203.09
2019-01-26T21:01:47.368Z,94212.73
2019-01-26T21:04:17.236Z,94211.95
2019-01-26T21:06:47.095Z,94203.52
2019-01-26T21:09:17.055Z,94202.92
2019-01-26T21:11:47.132Z,94199.86
2019-01-26T21:14:17.044Z,94198.00
2019-01-26T21:16:46.949Z,94195.05
2019-01-26T21:19:16.845Z,94189.98
2019-01-26T21:21:46.869Z,94192.87
2019-01-26T21:24:16.852Z,94183.91
2019-01-26T21:26:46.904Z,94178.53
2019-01-26T21:29:16.881Z,94180.13
2019-01-26T21:31:46.997Z,94179.32
2019-01-26T21:34:16.976Z,94170.01
2019-01-26T21:36:48.216Z,94167.81
2019-01-26T21:39:18.106Z,94158.98
2019-01-26T21:41:48.143Z,94153.92
2019-01-26T21:44:18.173Z,94146.31
2019-01-26T21:46:48.137Z,94149.94
2019-01-26T21:49:18.249Z,94146.63
2019-01-26T21:51:48.296Z,94154.37
2019-01-26T21:54:28.362Z,94148.56
2019-01-26T21:56:58.407Z,94153.33
2019-01-26T21:59:28.331Z,94139.33
2019-01-26T22:01:58.328Z,94144.58
2019-01-26T22:04:28.291Z,94137.02
2019-01-26T22:06:58.310Z,94136.40
2019-01-26T22:09:28.424Z,94131.07
2019-01-26T22:11:58.495Z,94128.45
2019-01-26T22:14:28.757Z,94118.86
2019-01-26T22:16:58.669Z,94112.41
2019-01-26T22:19:28.892Z,94105.69
2019-01-26T22:21:58.889Z,94104.61
2019-01-26T22:24:28.824Z,94107.94
2019-01-26T22:26:58.714Z,94097.85
2019-01-26T22:29:31.331Z,94095.66
2019-01-26T22:32:00.549Z,94096.13
2019-01-26T22:34:30.609Z,94088.91
2019-01-26T22:37:00.579Z,94090.02
2019-01-26T22:39:30.611Z,94085.14
2019-01-26T22:42:00.556Z,94079.59
2019-01-26T22:44:30.418Z,94078.42
2019-01-26T22:47:00.349Z,94070.53
2019-01-26T22:49:30.205Z,94067.84
2019-01-26T22:52:00.132Z,94068.80
2019-01-26T22:54:30.410Z,94065.17
2019-01-26T22:57:00.359Z,94059.80
2019-01-26T22:59:30.240Z,94059.80
2019-01-26T23:02:00.561Z,94055.54
2019-01-26T23:04:38.899Z,94049.70
2019-01-26T23:07:23.747Z,94041.50
2019-01-26T23:10:46.880Z,94036.64
2019-01-26T23:13:24.544Z,94032.06
2019-01-26T23:16:34.434Z,94027.34
2019-01-26T23:19:50.303Z,94018.06
2019-01-26T23:23:01.361Z,94018.89
2019-01-26T23:26:21.020Z,94007.38
2019-01-26T23:29:30.953Z,94001.28
2019-01-26T23:32:01.730Z,94000.83
2019-01-26T23:34:31.753Z,93995.80
2019-01-26T23:37:01.654Z,93994.07
2019-01-26T23:39:31.599Z,93981.95
2019-01-26T23:42:01.511Z,93978.48
2019-01-26T23:44:31.645Z,93977.42
2019-01-26T23:47:01.860Z,93970.60
2019-01-26T23:49:31.895Z,93962.62
2019-01-26T23:52:01.810Z,93959.48
2019-01-26T23:54:31.683Z,93952.41
2019-01-26T23:57:01.768Z,93954.47
2019-01-26T23:59:31.839Z,93954.94
